Time;durP1;ratioP1;P1;durP2;ratioP2;P2;SDS_P1;SDS_P2;PMS_P1;PMS_P2;Temp;Humidity;BMP_temperature;BMP_pressure;BME280_temperature;BME280_humidity;BME280_pressure;Samples;Min_cycle;Max_cycle;Signal;HPM_P1;HPM_P2
2021/01/14 00:00:21;;;;;;;5.97;1.47;;;;;;;-144.99;92.72;52590.78;5065261;28;20669;-77
2021/01/14 00:02:47;;;;;;;2.00;1.33;;;;;;;-144.99;92.80;52609.13;5069141;28;21223;-76
2021/01/14 00:05:13;;;;;;;5.60;2.10;;;;;;;-144.99;93.08;52558.16;5066465;28;20651;-78
2021/01/14 00:07:40;;;;;;;4.17;1.50;;;;;;;-144.99;93.19;52631.53;5069584;28;20750;-78
2021/01/14 00:10:09;;;;;;;6.90;1.80;;;;;;;-144.99;93.05;52611.16;5067926;28;20661;-76
2021/01/14 00:12:35;;;;;;;5.67;1.80;;;;;;;-144.99;92.91;52594.84;5069367;28;20703;-78
2021/01/14 00:15:04;;;;;;;4.07;2.73;;;;;;;-144.99;93.13;52625.44;5068582;28;20647;-78
2021/01/14 00:17:30;;;;;;;7.37;2.50;;;;;;;-144.99;92.93;52631.53;5065199;28;20739;-78
2021/01/14 00:19:56;;;;;;;8.20;1.90;;;;;;;-144.99;93.12;52603.00;5067289;28;20722;-76
2021/01/14 00:22:22;;;;;;;7.43;2.27;;;;;;;-144.99;93.41;52594.84;5067512;28;20623;-77
2021/01/14 00:24:48;;;;;;;7.70;1.73;;;;;;;-144.99;93.45;52580.59;5069254;28;21190;-78
2021/01/14 00:27:15;;;;;;;7.73;2.37;;;;;;;-144.99;93.74;52566.31;5067284;28;20754;-78
2021/01/14 00:29:41;;;;;;;4.87;2.13;;;;;;;-144.99;94.17;52639.69;5068243;28;21268;-78
2021/01/14 00:32:08;;;;;;;7.13;2.23;;;;;;;-144.99;93.59;52598.94;5068604;28;20654;-78
2021/01/14 00:34:34;;;;;;;6.97;1.63;;;;;;;-144.99;94.00;52570.38;5067494;28;20647;-78
2021/01/14 00:39:44;;;;;;;5.03;2.00;;;;;;;-144.99;93.77;52550.00;5062554;28;20666;-78
2021/01/14 00:42:17;;;;;;;6.90;2.33;;;;;;;-144.99;93.94;52560.19;5069710;28;20662;-77
2021/01/14 00:44:43;;;;;;;6.13;2.13;;;;;;;-144.99;94.08;52568.34;5069136;28;20633;-78
2021/01/14 00:47:10;;;;;;;12.77;2.70;;;;;;;-144.99;94.38;52619.31;5065669;28;20758;-79
2021/01/14 00:49:36;;;;;;;11.07;3.17;;;;;;;-144.99;95.56;52590.78;5067592;28;20742;-79
2021/01/14 00:52:02;;;;;;;7.33;2.93;;;;;;;-144.99;96.80;52586.69;5067686;28;20726;-78
2021/01/14 00:54:28;;;;;;;8.10;3.47;;;;;;;-144.99;98.06;52611.16;5068787;28;20740;-78
2021/01/14 00:56:54;;;;;;;8.33;2.80;;;;;;;-144.99;98.53;52590.78;5060587;28;20734;-77
2021/01/14 00:59:20;;;;;;;7.53;2.47;;;;;;;-144.99;98.90;52619.31;5068486;28;20677;-77
2021/01/14 01:01:47;;;;;;;8.13;3.07;;;;;;;-144.99;99.08;52615.25;5068349;28;20630;-77
2021/01/14 01:04:14;;;;;;;8.30;2.50;;;;;;;-144.99;99.88;52582.63;5065256;28;20642;-76
2021/01/14 01:06:41;;;;;;;8.37;2.77;;;;;;;-144.99;100.00;52590.78;5067160;28;21299;-77
2021/01/14 01:09:09;;;;;;;7.60;3.10;;;;;;;-144.99;100.00;52600.97;5068798;28;20654;-77
2021/01/14 01:11:36;;;;;;;6.87;2.50;;;;;;;-144.99;100.00;52560.19;5067314;28;21200;-77
2021/01/14 01:14:02;;;;;;;6.83;3.37;;;;;;;-144.99;100.00;52611.16;5068219;28;20661;-77
2021/01/14 01:16:28;;;;;;;5.17;2.53;;;;;;;-144.99;100.00;52615.25;5095612;22;20698;-75
2021/01/14 01:18:55;;;;;;;5.80;2.20;;;;;;;-144.99;100.00;52603.00;5080082;28;20687;-75
2021/01/14 01:21:22;;;;;;;4.80;3.17;;;;;;;-144.99;100.00;52558.16;5085822;28;20639;-80
2021/01/14 01:23:48;;;;;;;5.30;2.57;;;;;;;-144.99;100.00;52586.69;5074240;28;20646;-80
2021/01/14 01:26:18;;;;;;;9.40;6.23;;;;;;;-144.99;100.00;52656.00;5083570;28;20647;-79
2021/01/14 01:28:45;;;;;;;6.67;3.00;;;;;;;-144.99;100.00;52594.84;5054430;28;20680;-79
2021/01/14 01:31:12;;;;;;;5.37;3.07;;;;;;;-144.99;100.00;52560.19;5066334;28;20623;-81
2021/01/14 01:33:39;;;;;;;6.97;3.80;;;;;;;-144.99;100.00;52607.09;5053684;28;20754;-79
2021/01/14 01:36:06;;;;;;;10.13;3.93;;;;;;;-144.99;100.00;52578.53;5078481;28;20648;-80
2021/01/14 01:38:34;;;;;;;7.53;5.03;;;;;;;-144.99;100.00;52598.94;5074143;28;20683;-81
2021/01/14 01:41:01;;;;;;;9.97;3.43;;;;;;;-144.99;100.00;52615.25;5072967;28;20647;-78
2021/01/14 01:43:29;;;;;;;6.27;2.70;;;;;;;-144.99;100.00;52627.47;5069896;28;20659;-79
2021/01/14 01:45:56;;;;;;;7.00;3.33;;;;;;;-144.99;100.00;52574.47;5066563;28;20999;-79
2021/01/14 01:48:24;;;;;;;6.13;3.60;;;;;;;-144.99;100.00;52578.53;5076355;28;20678;-78
2021/01/14 01:50:54;;;;;;;5.67;2.93;;;;;;;-144.99;100.00;52603.00;5055228;28;20647;-78
2021/01/14 01:53:21;;;;;;;11.37;4.33;;;;;;;-144.99;100.00;52598.94;5064826;28;20650;-78
2021/01/14 01:55:48;;;;;;;6.47;3.93;;;;;;;-144.99;100.00;52625.44;5073862;28;20630;-78
2021/01/14 01:58:15;;;;;;;9.53;2.87;;;;;;;-144.99;100.00;52623.38;5064783;28;20746;-77
2021/01/14 02:00:41;;;;;;;5.73;3.07;;;;;;;-144.99;100.00;52627.47;5054962;28;20662;-78
2021/01/14 02:03:08;;;;;;;8.20;3.80;;;;;;;-144.99;100.00;52594.84;5062941;28;20663;-79
2021/01/14 02:05:34;;;;;;;6.00;3.20;;;;;;;-144.99;100.00;52596.88;5054006;28;20651;-78
2021/01/14 02:08:07;;;;;;;7.70;3.30;;;;;;;-144.99;100.00;52574.47;5057838;28;20781;-78
2021/01/14 02:10:36;;;;;;;12.40;3.83;;;;;;;-144.99;100.00;52574.47;5065660;28;21247;-79
2021/01/14 02:13:15;;;;;;;6.10;3.50;;;;;;;-144.99;100.00;52574.47;5071461;28;20630;-78
2021/01/14 02:15:42;;;;;;;8.53;3.50;;;;;;;-144.99;100.00;52588.75;5054994;28;20642;-79
2021/01/14 02:18:09;;;;;;;4.70;3.40;;;;;;;-144.99;100.00;52627.47;5056639;28;20662;-80
2021/01/14 02:20:37;;;;;;;8.80;3.13;;;;;;;-144.99;100.00;52598.94;5063261;28;20644;-80
2021/01/14 02:23:11;;;;;;;7.07;3.87;;;;;;;-144.99;100.00;52590.78;5066800;28;20647;-82
2021/01/14 02:25:58;;;;;;;4.77;2.77;;;;;;;-144.99;100.00;52611.16;5058455;28;20704;-79
2021/01/14 02:28:25;;;;;;;7.53;2.90;;;;;;;-144.99;100.00;52586.69;5064770;28;20666;-79
2021/01/14 02:30:52;;;;;;;7.37;3.33;;;;;;;-144.99;100.00;52570.38;5053969;28;20660;-78
2021/01/14 02:33:18;;;;;;;5.67;2.90;;;;;;;-144.99;100.00;52582.63;5051551;28;20627;-78
2021/01/14 02:35:44;;;;;;;6.90;3.20;;;;;;;-144.99;100.00;52586.69;5070238;28;21276;-78
2021/01/14 02:38:10;;;;;;;7.57;3.50;;;;;;;-144.99;100.00;52590.78;5071760;28;20647;-79
2021/01/14 02:40:36;;;;;;;8.60;3.73;;;;;;;-144.99;100.00;52619.31;5065964;28;20650;-77
2021/01/14 02:43:03;;;;;;;6.40;3.57;;;;;;;-144.99;100.00;52619.31;5053654;28;20713;-77
2021/01/14 02:45:29;;;;;;;9.70;3.83;;;;;;;-144.99;100.00;52598.94;5053092;28;20624;-75
2021/01/14 02:47:56;;;;;;;8.90;4.17;;;;;;;-144.99;100.00;52574.47;5052106;28;20679;-77
2021/01/14 02:50:24;;;;;;;3.73;3.10;;;;;;;-144.99;100.00;52594.84;5066705;28;20745;-78
2021/01/14 02:52:52;;;;;;;8.17;3.90;;;;;;;-144.99;100.00;52590.78;5071799;28;20733;-78
2021/01/14 02:55:19;;;;;;;5.70;2.90;;;;;;;-144.99;100.00;52594.84;5070825;28;20684;-78
2021/01/14 02:57:45;;;;;;;9.57;3.80;;;;;;;-144.99;100.00;52568.34;5064257;28;20687;-77
2021/01/14 03:00:13;;;;;;;5.63;3.37;;;;;;;-144.99;100.00;52574.47;5053178;28;20743;-78
2021/01/14 03:02:40;;;;;;;7.97;4.13;;;;;;;-144.99;100.00;52584.66;5051873;28;20628;-76
2021/01/14 03:05:07;;;;;;;4.40;2.67;;;;;;;-144.99;100.00;52586.69;5056323;28;20639;-77
2021/01/14 03:07:33;;;;;;;5.23;3.17;;;;;;;-144.99;100.00;52627.47;5055593;28;21195;-78
2021/01/14 03:09:59;;;;;;;5.33;3.37;;;;;;;-144.99;100.00;52607.09;5053044;28;20676;-77
2021/01/14 03:12:25;;;;;;;7.50;3.30;;;;;;;-144.99;100.00;52588.75;5058967;28;20650;-75
2021/01/14 03:14:51;;;;;;;7.20;3.13;;;;;;;-144.99;100.00;52529.63;5067786;28;20623;-77
2021/01/14 03:17:18;;;;;;;8.57;3.80;;;;;;;-144.99;100.00;52594.84;5059551;28;20674;-77
2021/01/14 03:19:44;;;;;;;5.10;3.20;;;;;;;-144.99;100.00;52576.50;5060009;28;20666;-76
2021/01/14 03:22:11;;;;;;;11.37;4.30;;;;;;;-144.99;100.00;52627.47;5052992;28;20731;-77
2021/01/14 03:24:39;;;;;;;9.53;5.30;;;;;;;-144.99;100.00;52578.53;5055758;28;20656;-76
2021/01/14 03:27:05;;;;;;;8.83;3.47;;;;;;;-144.99;100.00;52560.19;5051880;28;20639;-77
2021/01/14 03:29:32;;;;;;;5.70;3.43;;;;;;;-144.99;100.00;52574.47;5067875;28;21052;-76
2021/01/14 03:32:00;;;;;;;9.43;5.03;;;;;;;-144.99;100.00;52578.53;5060844;28;20627;-77
2021/01/14 03:34:27;;;;;;;6.37;3.70;;;;;;;-144.99;100.00;52615.25;5065250;28;20688;-77
2021/01/14 03:37:00;;;;;;;8.37;4.30;;;;;;;-144.99;100.00;52566.31;5070902;28;21203;-77
2021/01/14 03:39:28;;;;;;;9.23;4.23;;;;;;;-144.99;100.00;52582.63;5069073;28;20730;-78
2021/01/14 03:41:55;;;;;;;7.60;4.33;;;;;;;-144.99;100.00;52603.00;5058323;28;20758;-76
2021/01/14 03:44:22;;;;;;;9.20;4.27;;;;;;;-144.99;100.00;52578.53;5051231;28;20698;-77
2021/01/14 03:46:49;;;;;;;7.80;4.70;;;;;;;-144.99;100.00;52594.84;5058544;28;21088;-76
2021/01/14 03:49:15;;;;;;;9.53;4.57;;;;;;;-144.99;100.00;52603.00;5058672;28;20797;-75
2021/01/14 03:51:44;;;;;;;8.10;3.40;;;;;;;-144.99;100.00;52582.63;5072165;28;20643;-78
2021/01/14 03:54:10;;;;;;;10.13;5.13;;;;;;;-144.99;100.00;52570.38;5067868;28;20667;-76
2021/01/14 03:56:37;;;;;;;8.50;5.07;;;;;;;-144.99;100.00;52639.69;5066899;28;20615;-76
2021/01/14 03:59:04;;;;;;;10.27;5.60;;;;;;;-144.99;100.00;52541.84;5057837;28;21261;-77
2021/01/14 04:01:30;;;;;;;8.50;4.57;;;;;;;-144.99;100.00;52617.28;5057286;28;21052;-74
2021/01/14 04:03:57;;;;;;;8.57;4.87;;;;;;;-144.99;100.00;52633.59;5051640;28;20632;-78
2021/01/14 04:06:31;;;;;;;9.90;8.87;;;;;;;-144.99;100.00;52594.84;5050477;28;20634;-75
2021/01/14 04:08:59;;;;;;;10.90;4.60;;;;;;;-144.99;100.00;52586.69;5057099;28;20741;-76
2021/01/14 04:11:26;;;;;;;7.47;4.60;;;;;;;-144.99;100.00;52590.78;5054585;28;20693;-76
2021/01/14 04:13:52;;;;;;;7.53;4.80;;;;;;;-144.99;100.00;52603.00;5059852;28;20671;-76
2021/01/14 04:16:18;;;;;;;10.67;5.80;;;;;;;-144.99;100.00;52562.25;5050522;28;20714;-75
2021/01/14 04:18:44;;;;;;;14.63;5.37;;;;;;;-144.99;100.00;52552.03;5055747;28;20670;-77
2021/01/14 04:21:12;;;;;;;9.47;5.07;;;;;;;-144.99;100.00;52582.63;5054418;28;20627;-77
2021/01/14 04:23:38;;;;;;;7.93;4.43;;;;;;;-144.99;100.00;52607.09;5050756;28;20656;-77
2021/01/14 04:26:06;;;;;;;11.00;5.70;;;;;;;-144.99;100.00;52598.94;5049836;28;20671;-78
2021/01/14 04:28:32;;;;;;;7.77;4.63;;;;;;;-144.99;100.00;52578.53;5052644;28;20747;-77
2021/01/14 04:30:58;;;;;;;9.50;5.07;;;;;;;-144.99;100.00;52615.25;5052813;28;20798;-80
2021/01/14 04:33:24;;;;;;;7.40;4.23;;;;;;;-144.99;100.00;52598.94;5058693;28;21069;-77
2021/01/14 04:35:52;;;;;;;10.50;5.03;;;;;;;-144.99;100.00;52627.47;5074249;28;20669;-79
2021/01/14 04:38:20;;;;;;;8.43;4.90;;;;;;;-144.99;100.00;52596.88;5066363;28;20659;-77
2021/01/14 04:40:53;;;;;;;10.87;6.07;;;;;;;-144.99;100.00;52570.38;5060369;28;20620;-76
2021/01/14 04:43:23;;;;;;;22.70;6.07;;;;;;;-144.99;100.00;52586.69;5066676;28;21097;-78
2021/01/14 04:45:53;;;;;;;9.80;6.20;;;;;;;-144.99;100.00;52623.38;5057481;28;20985;-78
2021/01/14 04:48:21;;;;;;;11.43;4.43;;;;;;;-144.99;100.00;52574.47;5051069;28;20697;-78
2021/01/14 04:50:49;;;;;;;15.60;6.07;;;;;;;-144.99;100.00;52603.00;5049682;28;21097;-78
2021/01/14 04:53:19;;;;;;;11.20;5.90;;;;;;;-144.99;100.00;52615.25;5052018;28;21157;-78
2021/01/14 04:55:47;;;;;;;9.33;4.97;;;;;;;-144.99;100.00;52619.31;5073579;28;20620;-78
2021/01/14 04:58:18;;;;;;;10.53;6.50;;;;;;;-144.99;100.00;52570.38;5067897;28;20659;-77
2021/01/14 05:00:49;;;;;;;13.47;6.10;;;;;;;-144.99;100.00;52590.78;5064251;28;20674;-78
2021/01/14 05:03:21;;;;;;;15.50;5.63;;;;;;;-144.99;100.00;52594.84;5052901;28;21422;-77
2021/01/14 05:05:48;;;;;;;9.53;5.80;;;;;;;-144.99;100.00;52590.78;5049424;28;20756;-78
2021/01/14 05:08:16;;;;;;;9.53;5.90;;;;;;;-144.99;100.00;52580.59;5053669;28;20727;-77
2021/01/14 05:10:43;;;;;;;12.63;5.73;;;;;;;-144.99;100.00;52603.00;5054762;28;20648;-76
2021/01/14 05:13:09;;;;;;;9.70;6.17;;;;;;;-144.99;100.00;52570.38;5061513;28;20643;-77
2021/01/14 05:15:38;;;;;;;8.63;5.50;;;;;;;-144.99;100.00;52578.53;5055422;28;20631;-78
2021/01/14 05:18:05;;;;;;;8.63;5.37;;;;;;;-144.99;100.00;52600.97;5065851;28;20800;-74
2021/01/14 05:20:31;;;;;;;9.77;4.73;;;;;;;-144.99;100.00;52594.84;5063271;28;20655;-77
2021/01/14 05:23:01;;;;;;;10.17;6.30;;;;;;;-144.99;100.00;52578.53;5053310;28;20716;-77
2021/01/14 05:25:27;;;;;;;8.03;4.77;;;;;;;-144.99;100.00;52615.25;5056297;28;20663;-77
2021/01/14 05:27:54;;;;;;;10.27;5.73;;;;;;;-144.99;100.00;52623.38;5056792;28;20667;-80
2021/01/14 05:30:22;;;;;;;10.53;5.67;;;;;;;-144.99;100.00;52566.31;5061900;28;20683;-79
2021/01/14 05:32:49;;;;;;;11.03;5.60;;;;;;;-144.99;100.00;52598.94;5057255;28;20616;-79
2021/01/14 05:35:27;;;;;;;13.63;5.53;;;;;;;-144.99;100.00;52603.00;5065990;28;21257;-79
2021/01/14 05:38:00;;;;;;;11.90;6.07;;;;;;;-144.99;100.00;52578.53;5060630;28;20665;-78
2021/01/14 05:40:28;;;;;;;9.70;5.20;;;;;;;-144.99;100.00;52594.84;5069301;28;21014;-78
2021/01/14 05:43:06;;;;;;;10.83;4.27;;;;;;;-144.99;100.00;52574.47;5063796;28;20715;-77
2021/01/14 05:45:32;;;;;;;10.63;4.90;;;;;;;-144.99;100.00;52627.47;5055940;28;21231;-78
2021/01/14 05:48:09;;;;;;;10.97;5.23;;;;;;;-144.99;100.00;52578.53;5056754;28;20690;-79
2021/01/14 05:50:46;;;;;;;7.37;4.00;;;;;;;-144.99;100.00;52590.78;5056772;28;20765;-78
2021/01/14 05:53:14;;;;;;;11.17;5.17;;;;;;;-144.99;100.00;52566.31;5058078;28;21025;-78
2021/01/14 05:55:43;;;;;;;6.27;4.27;;;;;;;-144.99;100.00;52615.25;5074183;28;20761;-78
2021/01/14 05:58:16;;;;;;;18.47;5.77;;;;;;;-144.99;100.00;52574.47;5064032;28;20665;-77
2021/01/14 06:00:44;;;;;;;9.10;5.60;;;;;;;-144.99;100.00;52609.13;5062594;28;20770;-79
2021/01/14 06:03:26;;;;;;;8.50;4.77;;;;;;;-144.99;100.00;52647.84;5054270;28;20639;-79
2021/01/14 06:05:54;;;;;;;6.90;4.63;;;;;;;-144.99;100.00;52598.94;5067892;28;20623;-78
2021/01/14 06:08:24;;;;;;;8.83;5.20;;;;;;;-144.99;100.00;52578.53;5058336;28;20697;-79
2021/01/14 06:10:51;;;;;;;10.63;5.20;;;;;;;-144.99;100.00;52615.25;5066566;28;20694;-80
2021/01/14 06:13:18;;;;;;;14.30;4.53;;;;;;;-144.99;100.00;52582.63;5064701;28;20739;-78
2021/01/14 06:15:44;;;;;;;7.73;5.20;;;;;;;-144.99;100.00;52570.38;5060183;28;20656;-78
2021/01/14 06:18:12;;;;;;;8.83;5.70;;;;;;;-144.99;100.00;52590.78;5053807;28;20704;-77
2021/01/14 06:20:53;;;;;;;9.87;4.53;;;;;;;-144.99;100.00;52570.38;5053193;28;20639;-76
2021/01/14 06:23:22;;;;;;;14.00;5.70;;;;;;;-144.99;100.00;52586.69;5056046;28;20642;-76
2021/01/14 06:25:50;;;;;;;10.27;5.27;;;;;;;-144.99;100.00;52592.81;5058300;28;20686;-75
2021/01/14 06:28:17;;;;;;;7.87;5.47;;;;;;;-144.99;100.00;52578.53;5054712;28;20647;-78
2021/01/14 06:30:58;;;;;;;11.73;5.63;;;;;;;-144.99;100.00;52603.00;5062375;28;20744;-79
2021/01/14 06:33:25;;;;;;;11.43;4.90;;;;;;;-144.99;100.00;52574.47;5060011;28;20618;-79
2021/01/14 06:36:03;;;;;;;11.47;5.97;;;;;;;-144.99;100.00;52570.38;5071473;28;20627;-76
2021/01/14 06:38:40;;;;;;;9.30;5.17;;;;;;;-144.99;100.00;52592.81;5071669;28;20662;-78
2021/01/14 06:41:14;;;;;;;10.90;5.07;;;;;;;-144.99;100.00;52611.16;5066131;28;20693;-79
2021/01/14 06:43:42;;;;;;;8.40;4.30;;;;;;;-144.99;100.00;52533.69;5062378;28;20642;-78
2021/01/14 06:46:15;;;;;;;14.00;7.60;;;;;;;-144.99;100.00;52574.47;5056857;28;20631;-79
2021/01/14 06:48:49;;;;;;;11.27;6.57;;;;;;;-144.99;100.00;52586.69;5055375;28;20670;-78
2021/01/14 06:51:23;;;;;;;12.83;6.10;;;;;;;-144.99;100.00;52607.09;5055432;28;20623;-78
2021/01/14 06:53:56;;;;;;;9.87;4.90;;;;;;;-144.99;100.00;52623.38;5056857;28;20688;-78
2021/01/14 06:56:23;;;;;;;10.67;3.90;;;;;;;-144.99;100.00;52609.13;5071102;28;20788;-79
2021/01/14 06:58:52;;;;;;;9.03;5.30;;;;;;;-144.99;100.00;52592.81;5055695;28;20680;-76
2021/01/14 07:01:18;;;;;;;7.80;4.00;;;;;;;-144.99;100.00;52570.38;5051642;28;21000;-78
2021/01/14 07:03:56;;;;;;;7.50;5.57;;;;;;;-144.99;100.00;52586.69;5054476;28;20634;-79
2021/01/14 07:06:27;;;;;;;13.77;8.40;;;;;;;-144.99;100.00;52586.69;5072532;28;20626;-77
2021/01/14 07:09:13;;;;;;;11.23;5.47;;;;;;;-144.99;100.00;52547.97;5064502;28;21101;-77
2021/01/14 07:11:42;;;;;;;17.20;5.00;;;;;;;-144.99;100.00;52598.94;5068816;28;20630;-79
2021/01/14 07:14:13;;;;;;;10.40;4.63;;;;;;;-144.99;100.00;52582.63;5072860;28;20977;-79
2021/01/14 07:16:43;;;;;;;11.53;5.57;;;;;;;-144.99;100.00;52586.69;5066370;28;20636;-80
2021/01/14 07:19:09;;;;;;;8.40;4.40;;;;;;;-144.99;100.00;52584.66;5060606;28;20727;-78
2021/01/14 07:21:37;;;;;;;14.53;5.23;;;;;;;-144.99;100.00;52594.84;5054383;28;20666;-78
2021/01/14 07:24:12;;;;;;;8.67;4.50;;;;;;;-144.99;100.00;52562.25;5061561;28;20627;-77
2021/01/14 07:26:43;;;;;;;12.67;5.60;;;;;;;-144.99;100.00;52592.81;5071156;28;20647;-76
2021/01/14 07:29:11;;;;;;;5.87;4.53;;;;;;;-144.99;100.00;52588.75;5057845;28;20655;-78
2021/01/14 07:31:46;;;;;;;9.87;5.23;;;;;;;-144.99;100.00;52603.00;5052317;28;20970;-78
2021/01/14 07:34:33;;;;;;;9.83;4.00;;;;;;;-144.99;100.00;52623.38;5061728;28;20635;-76
2021/01/14 07:37:01;;;;;;;12.43;4.93;;;;;;;-144.99;100.00;52570.38;5055404;28;20671;-77
2021/01/14 07:39:56;;;;;;;7.97;5.57;;;;;;;-144.99;100.00;52603.00;5052086;28;20715;-75
2021/01/14 07:42:25;;;;;;;6.93;4.00;;;;;;;-144.99;100.00;52611.16;5023132;28;20651;-76
2021/01/14 07:44:56;;;;;;;14.03;5.53;;;;;;;-144.99;100.00;52588.75;5060532;28;21084;-74
2021/01/14 07:47:24;;;;;;;8.10;5.37;;;;;;;-144.99;100.00;52574.47;5066735;28;21360;-78
2021/01/14 07:49:50;;;;;;;10.27;5.93;;;;;;;-144.99;100.00;52590.78;5067899;28;20941;-77
2021/01/14 07:52:29;;;;;;;10.10;4.80;;;;;;;-144.99;100.00;52598.94;5052377;28;21023;-77
2021/01/14 07:55:05;;;;;;;12.47;5.73;;;;;;;-144.99;100.00;52598.94;5061464;28;20691;-76
2021/01/14 07:57:43;;;;;;;14.23;5.80;;;;;;;-144.99;100.00;52617.28;5062425;28;20659;-77
2021/01/14 08:00:20;;;;;;;6.97;4.40;;;;;;;-144.99;100.00;52570.38;5051498;28;21161;-77
2021/01/14 08:03:08;;;;;;;9.30;5.00;;;;;;;-144.99;100.00;52613.19;5063640;28;20638;-78
2021/01/14 08:05:41;;;;;;;9.83;5.50;;;;;;;-144.99;100.00;52570.38;5056830;28;20626;-78
2021/01/14 08:08:36;;;;;;;7.70;4.83;;;;;;;-144.99;100.00;52594.84;5051733;28;21189;-80
2021/01/14 08:11:15;;;;;;;9.13;5.57;;;;;;;-144.99;100.00;52598.94;5051486;28;20758;-77
2021/01/14 08:14:04;;;;;;;11.63;5.17;;;;;;;-144.99;100.00;52560.19;5070048;28;20615;-79
2021/01/14 08:16:32;;;;;;;7.90;4.33;;;;;;;-144.99;100.00;52541.84;5067073;28;20633;-78
2021/01/14 08:19:30;;;;;;;7.83;4.50;;;;;;;-144.99;100.00;52560.19;5060290;28;20676;-78
2021/01/14 08:22:12;;;;;;;13.70;6.17;;;;;;;-144.99;100.00;52598.94;5046884;28;20636;-78
2021/01/14 08:24:45;;;;;;;16.73;6.57;;;;;;;-144.99;100.00;52582.63;5054720;28;21191;-77
2021/01/14 08:27:13;;;;;;;11.27;6.47;;;;;;;-144.99;100.00;52598.94;5060362;28;20648;-79
2021/01/14 08:29:45;;;;;;;12.40;5.53;;;;;;;-144.99;100.00;52570.38;5056226;28;20716;-77
2021/01/14 08:32:42;;;;;;;7.90;4.53;;;;;;;-144.99;100.00;52550.00;5063527;28;20687;-79
2021/01/14 08:35:18;;;;;;;6.60;4.47;;;;;;;-144.99;100.00;52578.53;5060549;28;20643;-79
2021/01/14 08:37:46;;;;;;;11.80;4.63;;;;;;;-144.99;100.00;52582.63;5059408;28;20661;-80
2021/01/14 08:40:15;;;;;;;12.40;5.77;;;;;;;-144.99;100.00;52607.09;5068842;28;20634;-81
2021/01/14 08:42:42;;;;;;;7.07;3.77;;;;;;;-144.99;100.00;52598.94;5056997;28;20628;-79
2021/01/14 08:45:13;;;;;;;7.43;3.93;;;;;;;-144.99;100.00;52590.78;5055970;28;20632;-78
2021/01/14 08:48:10;;;;;;;11.17;4.80;;;;;;;-144.99;100.00;52607.09;5053644;28;20666;-79
2021/01/14 08:50:45;;;;;;;5.87;4.77;;;;;;;-144.99;100.00;52552.03;5065736;28;20663;-79
2021/01/14 08:53:24;;;;;;;7.33;4.83;;;;;;;-144.99;100.00;52511.28;5061934;28;20627;-78
2021/01/14 08:55:57;;;;;;;13.77;3.93;;;;;;;-144.99;100.00;52558.16;5065822;28;21041;-78
2021/01/14 08:58:39;;;;;;;8.67;4.80;;;;;;;-144.99;100.00;52574.47;5059621;28;20649;-80
2021/01/14 09:01:07;;;;;;;17.43;5.90;;;;;;;-144.99;100.00;52590.78;5063822;28;21208;-79
2021/01/14 09:03:34;;;;;;;8.50;6.10;;;;;;;-144.99;100.00;52586.69;5052682;28;20751;-78
2021/01/14 09:06:01;;;;;;;10.07;5.17;;;;;;;-144.99;100.00;52525.56;5062152;28;20635;-79
2021/01/14 09:08:28;;;;;;;7.90;5.13;;;;;;;-144.99;100.00;52588.75;5055929;28;21042;-79
2021/01/14 09:10:56;;;;;;;7.93;3.83;;;;;;;-144.99;99.81;52623.38;5062146;28;21089;-79
2021/01/14 09:13:24;;;;;;;10.07;5.93;;;;;;;-144.99;100.00;52582.63;5063937;28;20713;-78
2021/01/14 09:15:53;;;;;;;7.17;3.60;;;;;;;-144.99;99.82;52613.19;5056071;28;21187;-79
2021/01/14 09:18:29;;;;;;;9.50;5.97;;;;;;;-144.99;100.00;52586.69;5066201;28;20659;-78
2021/01/14 09:20:56;;;;;;;11.87;7.30;;;;;;;-144.99;100.00;52598.94;5054517;28;20696;-79
2021/01/14 09:23:27;;;;;;;11.70;6.50;;;;;;;-144.99;100.00;52603.00;5055478;28;20670;-79
2021/01/14 09:25:56;;;;;;;9.33;4.40;;;;;;;-144.99;100.00;52570.38;5071679;28;20674;-80
2021/01/14 09:28:25;;;;;;;8.03;4.97;;;;;;;-144.99;100.00;52578.53;5066541;28;20655;-78
2021/01/14 09:30:59;;;;;;;11.27;5.00;;;;;;;-144.99;100.00;52564.28;5070800;28;20659;-79
2021/01/14 09:33:27;;;;;;;6.30;4.53;;;;;;;-144.99;100.00;52590.78;5052062;28;20635;-78
2021/01/14 09:36:12;;;;;;;11.00;5.40;;;;;;;-144.99;100.00;52570.38;5069000;28;20635;-79
2021/01/14 09:38:40;;;;;;;7.37;4.90;;;;;;;-144.99;100.00;52619.31;5065090;28;20659;-78
2021/01/14 09:41:11;;;;;;;7.80;4.23;;;;;;;-144.99;100.00;52611.16;5066316;28;20624;-79
2021/01/14 09:43:41;;;;;;;7.63;4.23;;;;;;;-144.99;99.91;52566.31;5065107;28;20626;-78
2021/01/14 09:46:13;;;;;;;7.97;5.30;;;;;;;-144.99;100.00;52578.53;5062427;28;20622;-79
2021/01/14 09:48:40;;;;;;;9.00;4.47;;;;;;;-144.99;100.00;52605.03;5062353;28;20663;-75
2021/01/14 09:51:10;;;;;;;7.10;4.40;;;;;;;-144.99;100.00;52629.50;5058264;28;20635;-78
2021/01/14 09:53:44;;;;;;;8.47;5.53;;;;;;;-144.99;100.00;52586.69;5059019;28;20612;-77
2021/01/14 09:56:17;;;;;;;8.33;5.67;;;;;;;-144.99;100.00;52554.09;5073744;28;20633;-77
2021/01/14 09:58:46;;;;;;;10.00;6.47;;;;;;;-144.99;100.00;52582.63;5069273;28;20659;-79
2021/01/14 10:01:16;;;;;;;8.60;4.40;;;;;;;-144.99;100.00;52574.47;5067015;28;20918;-78
2021/01/14 10:03:48;;;;;;;7.03;4.37;;;;;;;-144.99;100.00;52578.53;5056867;28;20643;-77
2021/01/14 10:06:16;;;;;;;6.40;4.00;;;;;;;-144.99;100.00;52588.75;5056612;28;20650;-77
2021/01/14 10:08:48;;;;;;;12.37;5.67;;;;;;;-144.99;100.00;52611.16;5055890;28;20659;-79
2021/01/14 10:11:19;;;;;;;10.40;4.83;;;;;;;-144.99;100.00;52570.38;5057244;28;20814;-80
2021/01/14 10:13:51;;;;;;;7.73;4.20;;;;;;;-144.99;100.00;52564.28;5072447;28;20666;-78
2021/01/14 10:16:21;;;;;;;7.73;5.33;;;;;;;-144.99;100.00;52570.38;5062393;28;20647;-77
2021/01/14 10:18:48;;;;;;;7.77;4.73;;;;;;;-144.99;100.00;52578.53;5059448;28;20624;-78
2021/01/14 10:21:21;;;;;;;7.63;4.67;;;;;;;-144.99;100.00;52578.53;5058422;28;20650;-78
2021/01/14 10:23:47;;;;;;;7.80;5.00;;;;;;;-144.99;100.00;52558.16;5066064;28;20610;-78
2021/01/14 10:26:25;;;;;;;6.83;3.87;;;;;;;-144.99;100.00;52590.78;5062535;28;21214;-78
2021/01/14 10:28:52;;;;;;;9.10;4.37;;;;;;;-144.99;100.00;52574.47;5086314;28;20637;-77
2021/01/14 10:31:35;;;;;;;7.23;5.10;;;;;;;-144.99;99.81;52550.00;5080221;28;20656;-77
2021/01/14 10:34:01;;;;;;;6.07;4.07;;;;;;;-144.99;99.20;52582.63;5082423;28;20672;-78
2021/01/14 10:36:46;;;;;;;10.33;4.70;;;;;;;-144.99;99.56;52574.47;5075951;28;20624;-77
2021/01/14 10:39:12;;;;;;;13.53;6.57;;;;;;;-144.99;99.48;52615.25;5065005;28;20611;-77
2021/01/14 10:41:41;;;;;;;9.27;4.47;;;;;;;-144.99;99.37;52609.13;5072825;28;20995;-78
2021/01/14 10:44:08;;;;;;;8.97;5.30;;;;;;;-144.99;98.99;52574.47;5061509;28;20651;-79
2021/01/14 10:46:34;;;;;;;13.90;7.37;;;;;;;-144.99;98.73;52562.25;5065301;28;20733;-77
2021/01/14 10:49:11;;;;;;;11.33;6.03;;;;;;;-144.99;98.80;52574.47;5054726;28;21041;-77
2021/01/14 10:51:39;;;;;;;6.87;4.97;;;;;;;-144.99;98.86;52590.78;5057230;28;20626;-75
2021/01/14 10:54:05;;;;;;;7.30;5.20;;;;;;;-144.99;98.49;52562.25;5068742;28;20969;-79
2021/01/14 10:56:31;;;;;;;9.30;5.20;;;;;;;-144.99;98.38;52611.16;5070443;28;20663;-78
2021/01/14 10:59:01;;;;;;;9.00;4.30;;;;;;;-144.99;98.45;52566.31;5062006;28;20630;-78
2021/01/14 11:01:28;;;;;;;6.47;4.43;;;;;;;-144.99;98.16;52598.94;5052773;28;20990;-78
2021/01/14 11:03:55;;;;;;;5.90;4.33;;;;;;;-144.99;98.01;52541.84;5050838;28;20627;-76
2021/01/14 11:06:28;;;;;;;11.27;5.93;;;;;;;-144.99;97.92;52517.41;5059494;28;20656;-75
2021/01/14 11:09:00;;;;;;;8.70;3.43;;;;;;;-144.99;98.01;52578.53;5052539;28;20624;-76
2021/01/14 11:11:27;;;;;;;8.70;4.73;;;;;;;-144.99;98.02;52568.34;5059672;28;20670;-79
2021/01/14 11:13:53;;;;;;;13.03;5.63;;;;;;;-144.99;98.49;52578.53;5058867;28;20622;-76
2021/01/14 11:16:21;;;;;;;6.83;4.13;;;;;;;-144.99;98.05;52550.00;5062967;28;21168;-76
2021/01/14 11:18:49;;;;;;;10.73;5.73;;;;;;;-144.99;98.04;52594.84;5061395;28;21089;-77
2021/01/14 11:21:17;;;;;;;11.20;5.40;;;;;;;-144.99;97.91;52566.31;5066686;28;20618;-77
2021/01/14 11:23:44;;;;;;;12.00;5.50;;;;;;;-144.99;97.62;52576.50;5065945;28;20631;-78